createdAt,value
2017-05-09T00:00:18.222Z,1017.54
2017-05-09T00:01:27.809Z,1017.52
2017-05-09T00:02:37.408Z,1017.55
2017-05-09T00:03:46.731Z,1017.52
2017-05-09T00:04:57.245Z,1017.54
2017-05-09T00:06:07.154Z,1017.56
2017-05-09T00:07:17.056Z,1017.56
2017-05-09T00:08:26.978Z,1017.57
2017-05-09T00:09:36.882Z,1017.55
2017-05-09T00:10:47.360Z,1017.52
2017-05-09T00:11:57.568Z,1017.53
2017-05-09T00:13:07.486Z,1017.56
2017-05-09T00:14:17.414Z,1017.57
2017-05-09T00:15:27.634Z,1017.57
2017-05-09T00:16:37.997Z,1017.55
2017-05-09T00:17:47.616Z,1017.51
2017-05-09T00:18:57.826Z,1017.48
2017-05-09T00:20:07.430Z,1017.53
2017-05-09T00:21:16.733Z,1017.54
2017-05-09T00:22:26.891Z,1017.55
2017-05-09T00:23:36.794Z,1017.57
2017-05-09T00:24:46.412Z,1017.55
2017-05-09T00:25:56.622Z,1017.52
2017-05-09T00:27:06.526Z,1017.51
2017-05-09T00:28:16.886Z,1017.53
2017-05-09T00:29:26.186Z,1017.48
2017-05-09T00:30:36.118Z,1017.49
2017-05-09T00:31:46.323Z,1017.47
2017-05-09T00:32:56.232Z,1017.47
2017-05-09T00:34:06.696Z,1017.48
2017-05-09T00:35:16.600Z,1017.46
2017-05-09T00:36:26.238Z,1017.49
2017-05-09T00:37:36.482Z,1017.45
2017-05-09T00:38:47.079Z,1017.48
2017-05-09T00:39:57.595Z,1017.43
2017-05-09T00:41:07.498Z,1017.48
2017-05-09T00:42:17.414Z,1017.45
2017-05-09T00:43:27.023Z,1017.4
2017-05-09T00:44:36.021Z,1017.45
2017-05-09T00:45:46.282Z,1017.4
2017-05-09T00:46:55.576Z,1017.42
2017-05-09T00:48:05.189Z,1017.43
2017-05-09T00:49:14.183Z,1017.44
2017-05-09T00:50:24.104Z,1017.42
2017-05-09T00:51:34.310Z,1017.47
2017-05-09T00:52:44.216Z,1017.45
2017-05-09T00:53:54.121Z,1017.45
2017-05-09T00:55:04.351Z,1017.42
2017-05-09T00:56:13.956Z,1017.4
2017-05-09T00:57:24.159Z,1017.37
2017-05-09T00:58:34.070Z,1017.39
2017-05-09T00:59:44.298Z,1017.38
2017-05-09T01:00:54.519Z,1017.37
2017-05-09T01:02:04.718Z,1017.38
2017-05-09T01:03:15.174Z,1017.37
2017-05-09T01:04:25.080Z,1017.4
2017-05-09T01:05:34.996Z,1017.36
2017-05-09T01:06:44.909Z,1017.41
2017-05-09T01:07:54.813Z,1017.36
2017-05-09T01:09:05.126Z,1017.36
2017-05-09T01:10:15.367Z,1017.36
2017-05-09T01:11:24.976Z,1017.37
2017-05-09T01:12:34.899Z,1017.35
2017-05-09T01:13:44.532Z,1017.35
2017-05-09T01:14:54.757Z,1017.33
2017-05-09T01:16:04.970Z,1017.31
2017-05-09T01:17:14.571Z,1017.31
2017-05-09T01:18:24.195Z,1017.32
2017-05-09T01:19:34.425Z,1017.29
2017-05-09T01:20:44.349Z,1017.29
2017-05-09T01:21:54.251Z,1017.29
2017-05-09T01:23:04.467Z,1017.28
2017-05-09T01:24:14.699Z,1017.26
2017-05-09T01:25:24.320Z,1017.27
2017-05-09T01:26:34.376Z,1017.26
2017-05-09T01:27:44.280Z,1017.26
2017-05-09T01:28:54.188Z,1017.27
2017-05-09T01:30:04.098Z,1017.26
2017-05-09T01:31:14.315Z,1017.26
2017-05-09T01:32:24.781Z,1017.31
2017-05-09T01:33:34.377Z,1017.29
2017-05-09T01:34:44.281Z,1017.25
2017-05-09T01:35:54.500Z,1017.28
2017-05-09T01:37:04.093Z,1017.27
2017-05-09T01:38:14.256Z,1017.31
2017-05-09T01:39:24.159Z,1017.33
2017-05-09T01:40:34.375Z,1017.28
2017-05-09T01:41:44.596Z,1017.34
2017-05-09T01:42:54.193Z,1017.32
2017-05-09T01:44:04.513Z,1017.32
2017-05-09T01:45:14.419Z,1017.3
2017-05-09T01:46:24.316Z,1017.32
2017-05-09T01:47:34.513Z,1017.29
2017-05-09T01:48:44.730Z,1017.32
2017-05-09T01:49:54.800Z,1017.28
2017-05-09T01:51:05.018Z,1017.26
2017-05-09T01:52:14.923Z,1017.3
2017-05-09T01:53:24.523Z,1017.26
2017-05-09T01:54:34.740Z,1017.27
2017-05-09T01:55:44.741Z,1017.27
2017-05-09T01:56:54.951Z,1017.27
2017-05-09T01:58:04.876Z,1017.25
2017-05-09T01:59:14.786Z,1017.3
2017-05-09T02:00:24.409Z,1017.28
2017-05-09T02:01:34.775Z,1017.29
2017-05-09T02:02:44.984Z,1017.35
2017-05-09T02:03:54.927Z,1017.31
2017-05-09T02:05:05.152Z,1017.35
2017-05-09T02:06:14.453Z,1017.36
2017-05-09T02:07:24.666Z,1017.37
2017-05-09T02:08:34.578Z,1017.4
2017-05-09T02:09:44.194Z,1017.38
2017-05-09T02:10:54.419Z,1017.37
2017-05-09T02:12:03.715Z,1017.41
2017-05-09T02:13:13.570Z,1017.4
2017-05-09T02:14:23.799Z,1017.37
2017-05-09T02:15:33.706Z,1017.39
2017-05-09T02:16:43.310Z,1017.42
2017-05-09T02:17:52.915Z,1017.38
2017-05-09T02:19:02.981Z,1017.34
2017-05-09T02:20:13.199Z,1017.38
2017-05-09T02:21:23.109Z,1017.4
2017-05-09T02:22:33.321Z,1017.4
2017-05-09T02:23:43.234Z,1017.4
2017-05-09T02:24:53.159Z,1017.42
2017-05-09T02:26:03.370Z,1017.41
2017-05-09T02:27:12.971Z,1017.42
2017-05-09T02:28:23.191Z,1017.42
2017-05-09T02:29:33.762Z,1017.41
2017-05-09T02:30:43.931Z,1017.41
2017-05-09T02:31:54.138Z,1017.45
2017-05-09T02:33:04.352Z,1017.44
2017-05-09T02:34:14.283Z,1017.4
2017-05-09T02:35:24.199Z,1017.42
2017-05-09T02:36:33.991Z,1017.42
2017-05-09T02:37:43.906Z,1017.43
2017-05-09T02:38:53.831Z,1017.43
2017-05-09T02:40:03.740Z,1017.42
2017-05-09T02:41:13.955Z,1017.41
2017-05-09T02:42:24.004Z,1017.4
2017-05-09T02:43:34.221Z,1017.39
2017-05-09T02:44:43.536Z,1017.36
2017-05-09T02:45:53.754Z,1017.41
2017-05-09T02:47:03.969Z,1017.35
2017-05-09T02:48:14.135Z,1017.31
2017-05-09T02:49:23.777Z,1017.39
2017-05-09T02:50:33.380Z,1017.39
2017-05-09T02:51:43.598Z,1017.42
2017-05-09T02:52:53.512Z,1017.44
2017-05-09T02:54:03.278Z,1017.42
2017-05-09T02:55:12.897Z,1017.45
2017-05-09T02:56:22.814Z,1017.43
2017-05-09T02:57:33.040Z,1017.47
2017-05-09T02:58:42.636Z,1017.44
2017-05-09T02:59:52.694Z,1017.41
2017-05-09T03:01:02.309Z,1017.41
2017-05-09T03:02:11.905Z,1017.41
2017-05-09T03:03:21.827Z,1017.4
2017-05-09T03:04:31.744Z,1017.41
2017-05-09T03:05:41.704Z,1017.36
2017-05-09T03:06:51.923Z,1017.34
2017-05-09T03:08:01.830Z,1017.33
2017-05-09T03:09:11.733Z,1017.31
2017-05-09T03:10:21.638Z,1017.25
2017-05-09T03:11:31.541Z,1017.27
2017-05-09T03:12:41.139Z,1017.31
2017-05-09T03:13:51.063Z,1017.3
2017-05-09T03:15:01.276Z,1017.29
2017-05-09T03:16:11.182Z,1017.28
2017-05-09T03:17:21.247Z,1017.25
2017-05-09T03:18:31.143Z,1017.23
2017-05-09T03:19:40.747Z,1017.26
2017-05-09T03:20:50.650Z,1017.26
2017-05-09T03:22:00.563Z,1017.22
2017-05-09T03:23:10.454Z,1017.28
2017-05-09T03:24:20.061Z,1017.28
2017-05-09T03:25:29.666Z,1017.31
2017-05-09T03:26:39.900Z,1017.28
2017-05-09T03:27:49.511Z,1017.3
2017-05-09T03:28:59.835Z,1017.31
2017-05-09T03:30:10.063Z,1017.33
2017-05-09T03:31:19.967Z,1017.33
2017-05-09T03:32:29.868Z,1017.33
2017-05-09T03:33:39.762Z,1017.33
2017-05-09T03:34:49.665Z,1017.34
2017-05-09T03:35:58.966Z,1017.3
2017-05-09T03:37:08.578Z,1017.33
2017-05-09T03:38:18.786Z,1017.31
2017-05-09T03:39:29.001Z,1017.33
2017-05-09T03:40:39.007Z,1017.32
2017-05-09T03:41:49.213Z,1017.27
2017-05-09T03:42:58.819Z,1017.28
2017-05-09T03:44:09.032Z,1017.29
2017-05-09T03:45:18.947Z,1017.3
2017-05-09T03:46:28.857Z,1017.28
2017-05-09T03:47:38.467Z,1017.25
2017-05-09T03:48:48.384Z,1017.25
2017-05-09T03:49:58.297Z,1017.25
2017-05-09T03:51:07.898Z,1017.25
2017-05-09T03:52:17.671Z,1017.22
2017-05-09T03:53:27.908Z,1017.22
2017-05-09T03:54:37.542Z,1017.17
2017-05-09T03:55:47.758Z,1017.16
2017-05-09T03:56:57.352Z,1017.21
2017-05-09T03:58:07.839Z,1017.19
2017-05-09T03:59:17.752Z,1017.16
2017-05-09T04:00:27.979Z,1017.12
2017-05-09T04:01:38.204Z,1017.11
2017-05-09T04:02:47.803Z,1017.1
2017-05-09T04:03:58.269Z,1017.1
2017-05-09T04:05:08.491Z,1017.15
2017-05-09T04:06:18.713Z,1017.17
2017-05-09T04:07:28.931Z,1017.17
2017-05-09T04:08:38.847Z,1017.14
2017-05-09T04:09:49.063Z,1017.22
2017-05-09T04:10:58.977Z,1017.19
2017-05-09T04:12:09.184Z,1017.2
2017-05-09T04:13:19.421Z,1017.22
2017-05-09T04:14:29.651Z,1017.24
2017-05-09T04:15:39.608Z,1017.25
2017-05-09T04:16:49.511Z,1017.25
2017-05-09T04:17:58.812Z,1017.26
2017-05-09T04:19:08.416Z,1017.25
2017-05-09T04:20:18.326Z,1017.27
2017-05-09T04:21:28.530Z,1017.27
2017-05-09T04:22:38.738Z,1017.27
2017-05-09T04:24:08.171Z,1017.31
2017-05-09T04:25:17.770Z,1017.37
2017-05-09T04:26:27.830Z,1017.34
2017-05-09T04:27:37.419Z,1017.35
2017-05-09T04:28:47.357Z,1017.37
2017-05-09T04:29:57.259Z,1017.4
2017-05-09T04:31:07.177Z,1017.39
2017-05-09T04:32:17.559Z,1017.43
2017-05-09T04:33:27.778Z,1017.41
2017-05-09T04:34:37.688Z,1017.43
2017-05-09T04:35:47.900Z,1017.44
2017-05-09T04:36:57.815Z,1017.41
2017-05-09T04:38:07.868Z,1017.41
2017-05-09T04:39:17.470Z,1017.42
2017-05-09T04:40:27.081Z,1017.42
2017-05-09T04:41:36.713Z,1017.43
2017-05-09T04:42:46.634Z,1017.41
2017-05-09T04:43:56.411Z,1017.38
2017-05-09T04:45:06.326Z,1017.37
2017-05-09T04:46:16.549Z,1017.38
2017-05-09T04:47:25.863Z,1017.41
2017-05-09T04:48:35.781Z,1017.42
2017-05-09T04:49:45.935Z,1017.4
2017-05-09T04:50:55.863Z,1017.37
2017-05-09T04:52:05.783Z,1017.38
2017-05-09T04:53:15.450Z,1017.38
2017-05-09T04:54:25.576Z,1017.37
2017-05-09T04:55:35.971Z,1017.37
2017-05-09T04:56:45.937Z,1017.39
2017-05-09T04:57:56.167Z,1017.39
2017-05-09T04:59:06.408Z,1017.35
2017-05-09T05:00:16.063Z,1017.38
2017-05-09T05:01:26.435Z,1017.36
2017-05-09T05:02:36.668Z,1017.38
2017-05-09T05:03:46.609Z,1017.34
2017-05-09T05:04:56.572Z,1017.36
2017-05-09T05:06:06.188Z,1017.34
2017-05-09T05:07:16.250Z,1017.33
2017-05-09T05:08:26.159Z,1017.31
2017-05-09T05:09:35.789Z,1017.32
2017-05-09T05:10:46.018Z,1017.3
2017-05-09T05:11:55.933Z,1017.27
2017-05-09T05:13:06.011Z,1017.29
2017-05-09T05:14:15.607Z,1017.29
2017-05-09T05:15:24.899Z,1017.29
2017-05-09T05:16:34.805Z,1017.34
2017-05-09T05:17:44.404Z,1017.38
2017-05-09T05:18:54.771Z,1017.3
2017-05-09T05:20:05.377Z,1017.34
2017-05-09T05:21:14.978Z,1017.32
2017-05-09T05:22:25.188Z,1017.28
2017-05-09T05:23:35.099Z,1017.29
2017-05-09T05:24:45.156Z,1017.28
2017-05-09T05:25:55.364Z,1017.27
2017-05-09T05:27:04.976Z,1017.3
2017-05-09T05:28:15.216Z,1017.27
2017-05-09T05:29:25.443Z,1017.26
2017-05-09T05:30:35.203Z,1017.29
2017-05-09T05:31:45.434Z,1017.31
2017-05-09T05:32:55.349Z,1017.29
2017-05-09T05:34:05.266Z,1017.3
2017-05-09T05:35:15.175Z,1017.29
2017-05-09T05:36:25.545Z,1017.27
2017-05-09T05:37:35.777Z,1017.25
2017-05-09T05:38:45.692Z,1017.27
2017-05-09T05:39:55.620Z,1017.26
2017-05-09T05:41:05.542Z,1017.32
2017-05-09T05:42:15.288Z,1017.33
2017-05-09T05:43:25.548Z,1017.37
2017-05-09T05:44:35.450Z,1017.4
2017-05-09T05:45:45.057Z,1017.35
2017-05-09T05:46:54.710Z,1017.33
2017-05-09T05:48:05.078Z,1017.29
2017-05-09T05:49:15.009Z,1017.31
2017-05-09T05:50:24.931Z,1017.29
2017-05-09T05:51:35.147Z,1017.26
2017-05-09T05:52:45.359Z,1017.28
2017-05-09T05:53:55.734Z,1017.26
2017-05-09T05:55:05.355Z,1017.3
2017-05-09T05:56:14.653Z,1017.25
2017-05-09T05:57:24.568Z,1017.32
2017-05-09T05:58:33.868Z,1017.36
2017-05-09T05:59:44.250Z,1017.41
2017-05-09T06:00:54.161Z,1017.39
2017-05-09T06:02:04.076Z,1017.37
2017-05-09T06:03:13.369Z,1017.37
2017-05-09T06:04:23.585Z,1017.35
2017-05-09T06:05:33.946Z,1017.35
2017-05-09T06:06:44.153Z,1017.38
2017-05-09T06:07:54.387Z,1017.37
2017-05-09T06:09:04.606Z,1017.36
2017-05-09T06:10:13.905Z,1017.34
2017-05-09T06:11:24.281Z,1017.34
2017-05-09T06:12:33.582Z,1017.31
2017-05-09T06:13:43.509Z,1017.34
2017-05-09T06:14:53.721Z,1017.35
2017-05-09T06:16:03.641Z,1017.3
2017-05-09T06:17:13.720Z,1017.29
2017-05-09T06:18:23.990Z,1017.27
2017-05-09T06:19:33.910Z,1017.22
2017-05-09T06:20:44.136Z,1017.2
2017-05-09T06:21:53.749Z,1017.22
2017-05-09T06:23:03.494Z,1017.25
2017-05-09T06:24:13.114Z,1017.2
2017-05-09T06:25:23.341Z,1017.23
2017-05-09T06:26:33.575Z,1017.22
2017-05-09T06:27:43.185Z,1017.19
2017-05-09T06:28:53.564Z,1017.25
2017-05-09T06:30:03.493Z,1017.23
2017-05-09T06:31:13.423Z,1017.22
2017-05-09T06:32:23.664Z,1017.27
2017-05-09T06:33:33.882Z,1017.33
2017-05-09T06:34:43.655Z,1017.28
2017-05-09T06:35:53.585Z,1017.3
2017-05-09T06:37:03.517Z,1017.33
2017-05-09T06:38:13.441Z,1017.3
2017-05-09T06:39:23.364Z,1017.35
2017-05-09T06:40:33.740Z,1017.33
2017-05-09T06:41:43.369Z,1017.34
2017-05-09T06:42:53.298Z,1017.39
2017-05-09T06:44:02.937Z,1017.41
2017-05-09T06:45:12.555Z,1017.44
2017-05-09T06:46:22.628Z,1017.36
2017-05-09T06:47:32.547Z,1017.35
2017-05-09T06:48:42.463Z,1017.34
2017-05-09T06:49:52.394Z,1017.35
2017-05-09T06:51:02.013Z,1017.34
2017-05-09T06:52:12.383Z,1017.38
2017-05-09T06:53:21.992Z,1017.33
2017-05-09T06:54:31.941Z,1017.38
2017-05-09T06:55:41.564Z,1017.44
2017-05-09T06:56:51.184Z,1017.41
2017-05-09T06:58:01.205Z,1017.4
2017-05-09T06:59:11.142Z,1017.39
2017-05-09T07:00:21.369Z,1017.38
2017-05-09T07:01:31.305Z,1017.41
2017-05-09T07:02:40.305Z,1017.39
2017-05-09T07:03:50.040Z,1017.38
2017-05-09T07:04:59.958Z,1017.4
2017-05-09T07:06:10.177Z,1017.36
2017-05-09T07:07:20.413Z,1017.35
2017-05-09T07:08:30.336Z,1017.32
2017-05-09T07:09:40.408Z,1017.31
2017-05-09T07:10:50.333Z,1017.28
2017-05-09T07:12:00.561Z,1017.29
2017-05-09T07:13:10.786Z,1017.3
2017-05-09T07:14:20.399Z,1017.32
2017-05-09T07:15:30.112Z,1017.27
2017-05-09T07:16:39.723Z,1017.26
2017-05-09T07:17:49.336Z,1017.21
2017-05-09T07:18:59.569Z,1017.23
2017-05-09T07:20:08.587Z,1017.22
2017-05-09T07:21:18.624Z,1017.23
2017-05-09T07:22:28.554Z,1017.16
2017-05-09T07:23:38.187Z,1017.17
2017-05-09T07:24:48.112Z,1017.17
2017-05-09T07:25:58.344Z,1017.2
2017-05-09T07:27:08.872Z,1017.18
2017-05-09T07:28:19.102Z,1017.19
2017-05-09T07:29:29.040Z,1017.2
2017-05-09T07:30:38.981Z,1017.19
2017-05-09T07:31:48.305Z,1017.14
2017-05-09T07:32:58.690Z,1017.18
2017-05-09T07:34:08.927Z,1017.17
2017-05-09T07:35:19.154Z,1017.08
2017-05-09T07:36:28.773Z,1017.07
2017-05-09T07:37:39.005Z,1017.03
2017-05-09T07:38:49.074Z,1017.06
2017-05-09T07:39:59.314Z,1017.04
2017-05-09T07:41:09.542Z,1017.01
2017-05-09T07:42:19.767Z,1017.02
2017-05-09T07:43:29.689Z,1016.96
2017-05-09T07:44:39.148Z,1016.97
2017-05-09T07:45:49.085Z,1016.97
2017-05-09T07:46:59.012Z,1016.95
2017-05-09T07:48:09.255Z,1016.95
2017-05-09T07:49:19.177Z,1016.97
2017-05-09T07:50:28.956Z,1016.95
2017-05-09T07:51:39.184Z,1016.93
2017-05-09T07:52:49.405Z,1016.94
2017-05-09T07:53:59.346Z,1016.96
2017-05-09T07:55:08.356Z,1016.95
2017-05-09T07:56:18.836Z,1016.91
2017-05-09T07:57:28.788Z,1016.9
2017-05-09T07:58:38.420Z,1016.9
2017-05-09T07:59:48.656Z,1016.91
2017-05-09T08:00:58.596Z,1016.92
2017-05-09T08:02:08.364Z,1016.98
2017-05-09T08:03:18.296Z,1016.88
2017-05-09T08:04:28.220Z,1016.89
2017-05-09T08:05:38.146Z,1016.9
2017-05-09T08:06:48.084Z,1016.88
2017-05-09T08:07:58.458Z,1016.85
2017-05-09T08:09:08.389Z,1016.86
2017-05-09T08:10:17.998Z,1016.88
2017-05-09T08:11:27.616Z,1016.83
2017-05-09T08:12:36.943Z,1016.82
2017-05-09T08:13:47.022Z,1016.83
2017-05-09T08:14:56.960Z,1016.79
2017-05-09T08:16:06.895Z,1016.82
2017-05-09T08:17:16.209Z,1016.83
2017-05-09T08:18:25.838Z,1016.82
2017-05-09T08:19:36.217Z,1016.82
2017-05-09T08:20:46.138Z,1016.83
2017-05-09T08:21:55.763Z,1016.88
2017-05-09T08:23:05.991Z,1016.79
2017-05-09T08:24:15.951Z,1016.8
2017-05-09T08:25:26.434Z,1016.82
2017-05-09T08:26:36.053Z,1016.75
2017-05-09T08:27:46.652Z,1016.78
2017-05-09T08:28:56.893Z,1016.74
2017-05-09T08:30:06.827Z,1016.8
2017-05-09T08:31:16.594Z,1016.78
2017-05-09T08:32:26.222Z,1016.75
2017-05-09T08:33:36.459Z,1016.78
2017-05-09T08:34:46.764Z,1016.77
2017-05-09T08:35:56.388Z,1016.74
2017-05-09T08:37:06.467Z,1016.76
2017-05-09T08:38:16.413Z,1016.78
2017-05-09T08:39:26.661Z,1016.75
2017-05-09T08:40:36.903Z,1016.76
2017-05-09T08:41:46.902Z,1016.76
2017-05-09T08:42:56.980Z,1016.73
2017-05-09T08:44:06.620Z,1016.74
2017-05-09T08:45:16.553Z,1016.78
2017-05-09T08:46:26.803Z,1016.82
2017-05-09T08:47:36.427Z,1016.83
2017-05-09T08:48:46.198Z,1016.82
2017-05-09T08:49:55.829Z,1016.88
2017-05-09T08:51:05.457Z,1016.8
2017-05-09T08:52:15.370Z,1016.74
2017-05-09T08:53:24.991Z,1016.82
2017-05-09T08:54:35.382Z,1016.78
2017-05-09T08:55:45.007Z,1016.78
2017-05-09T08:56:54.932Z,1016.77
2017-05-09T08:58:04.862Z,1016.83
2017-05-09T08:59:14.792Z,1016.76
2017-05-09T09:00:24.572Z,1016.84
2017-05-09T09:01:34.805Z,1016.76
2017-05-09T09:02:44.751Z,1016.77
2017-05-09T09:03:54.688Z,1016.76
2017-05-09T09:05:04.625Z,1016.78
2017-05-09T09:06:14.727Z,1016.74
2017-05-09T09:07:24.962Z,1016.77
2017-05-09T09:08:35.203Z,1016.78
2017-05-09T09:09:45.146Z,1016.83
2017-05-09T09:10:53.843Z,1016.84
2017-05-09T09:12:04.222Z,1016.78
2017-05-09T09:13:13.546Z,1016.86
2017-05-09T09:14:22.900Z,1016.81
2017-05-09T09:15:33.148Z,1016.83
2017-05-09T09:16:42.457Z,1016.83
2017-05-09T09:17:52.843Z,1016.73
2017-05-09T09:19:03.072Z,1016.73
2017-05-09T09:20:13.313Z,1016.74
2017-05-09T09:21:23.242Z,1016.77
2017-05-09T09:22:33.470Z,1016.76
2017-05-09T09:23:43.553Z,1016.75
2017-05-09T09:24:53.808Z,1016.72
2017-05-09T09:26:03.746Z,1016.75
2017-05-09T09:27:13.368Z,1016.73
2017-05-09T09:28:23.288Z,1016.71
2017-05-09T09:29:32.761Z,1016.75
2017-05-09T09:30:42.063Z,1016.74
2017-05-09T09:31:51.987Z,1016.69
2017-05-09T09:33:01.936Z,1016.65
2017-05-09T09:34:11.856Z,1016.62
2017-05-09T09:35:21.609Z,1016.58
2017-05-09T09:36:31.531Z,1016.57
2017-05-09T09:37:41.445Z,1016.56
2017-05-09T09:38:51.674Z,1016.56
2017-05-09T09:40:01.597Z,1016.53
2017-05-09T09:41:11.991Z,1016.52
2017-05-09T09:42:22.216Z,1016.53
2017-05-09T09:43:31.840Z,1016.55
2017-05-09T09:44:41.762Z,1016.54
2017-05-09T09:45:51.692Z,1016.58
2017-05-09T09:47:02.086Z,1016.54
2017-05-09T09:48:11.405Z,1016.59
2017-05-09T09:49:21.320Z,1016.58
2017-05-09T09:50:30.639Z,1016.55
2017-05-09T09:51:40.256Z,1016.56
2017-05-09T09:52:50.642Z,1016.59
2017-05-09T09:54:00.277Z,1016.52
2017-05-09T09:55:09.932Z,1016.5
2017-05-09T09:56:19.848Z,1016.54
2017-05-09T09:57:29.764Z,1016.6
2017-05-09T09:58:40.091Z,1016.6
2017-05-09T09:59:49.706Z,1016.65
2017-05-09T10:00:59.924Z,1016.56
2017-05-09T10:02:09.554Z,1016.57
2017-05-09T10:03:19.162Z,1016.54
2017-05-09T10:04:29.196Z,1016.54
2017-05-09T10:05:38.801Z,1016.52
2017-05-09T10:06:48.432Z,1016.52
2017-05-09T10:07:58.663Z,1016.51
2017-05-09T10:09:08.888Z,1016.5
2017-05-09T10:10:18.920Z,1016.46
2017-05-09T10:11:28.841Z,1016.47
2017-05-09T10:12:38.768Z,1016.46
2017-05-09T10:13:48.696Z,1016.42
2017-05-09T10:14:58.021Z,1016.41
2017-05-09T10:16:08.358Z,1016.4
2017-05-09T10:17:17.962Z,1016.36
2017-05-09T10:18:27.582Z,1016.36
2017-05-09T10:19:37.197Z,1016.34
2017-05-09T10:20:46.503Z,1016.32
2017-05-09T10:21:56.865Z,1016.3
2017-05-09T10:23:06.473Z,1016.39
2017-05-09T10:24:16.416Z,1016.35
2017-05-09T10:25:26.048Z,1016.36
2017-05-09T10:26:36.278Z,1016.38
2017-05-09T10:27:46.653Z,1016.32
2017-05-09T10:28:56.882Z,1016.27
2017-05-09T10:30:06.823Z,1016.25
2017-05-09T10:31:16.758Z,1016.28
2017-05-09T10:32:26.379Z,1016.27
2017-05-09T10:33:36.155Z,1016.22
2017-05-09T10:34:46.384Z,1016.24
2017-05-09T10:35:56.649Z,1016.24
2017-05-09T10:37:06.569Z,1016.16
2017-05-09T10:38:16.806Z,1016.18
2017-05-09T10:39:26.870Z,1016.14
2017-05-09T10:40:36.508Z,1016.12
2017-05-09T10:41:46.777Z,1016.1
2017-05-09T10:42:56.727Z,1016.02
2017-05-09T10:44:06.966Z,1016.03
2017-05-09T10:45:16.425Z,1016.01
2017-05-09T10:46:26.671Z,1016.02
2017-05-09T10:47:36.909Z,1015.99
2017-05-09T10:48:46.854Z,1016.02
2017-05-09T10:49:57.110Z,1015.96
2017-05-09T10:51:07.483Z,1015.98
2017-05-09T10:52:17.706Z,1015.96
2017-05-09T10:53:27.932Z,1015.91
2017-05-09T10:54:38.164Z,1015.9
2017-05-09T10:55:48.084Z,1015.89
2017-05-09T10:56:57.945Z,1015.85
2017-05-09T10:58:07.562Z,1015.83
2017-05-09T10:59:17.832Z,1015.84
2017-05-09T11:00:27.442Z,1015.82
2017-05-09T11:01:37.665Z,1015.8
2017-05-09T11:02:48.045Z,1015.79
2017-05-09T11:03:57.677Z,1015.75
2017-05-09T11:05:07.590Z,1015.74
2017-05-09T11:06:17.201Z,1015.72
2017-05-09T11:07:27.119Z,1015.73
2017-05-09T11:08:37.194Z,1015.69
2017-05-09T11:09:46.807Z,1015.71
2017-05-09T11:10:56.726Z,1015.67
2017-05-09T11:12:06.650Z,1015.72
2017-05-09T11:13:16.864Z,1015.72
2017-05-09T11:14:26.937Z,1015.71
2017-05-09T11:15:36.565Z,1015.69
2017-05-09T11:16:46.782Z,1015.63
2017-05-09T11:17:56.709Z,1015.64
2017-05-09T11:19:06.318Z,1015.61
2017-05-09T11:20:16.687Z,1015.54
2017-05-09T11:21:26.603Z,1015.58
2017-05-09T11:22:36.839Z,1015.55
2017-05-09T11:23:46.476Z,1015.51
2017-05-09T11:24:56.708Z,1015.5
2017-05-09T11:26:07.232Z,1015.51
2017-05-09T11:27:16.857Z,1015.51
2017-05-09T11:28:27.101Z,1015.49
2017-05-09T11:29:36.417Z,1015.53
2017-05-09T11:30:46.346Z,1015.53
2017-05-09T11:31:56.728Z,1015.52
2017-05-09T11:33:06.053Z,1015.47
2017-05-09T11:34:15.979Z,1015.44
2017-05-09T11:35:25.895Z,1015.42
2017-05-09T11:36:35.821Z,1015.39
2017-05-09T11:37:45.899Z,1015.34
2017-05-09T11:38:55.839Z,1015.38
2017-05-09T11:40:05.474Z,1015.34
2017-05-09T11:41:14.779Z,1015.32
2017-05-09T11:42:24.713Z,1015.3
2017-05-09T11:43:34.793Z,1015.3
2017-05-09T11:44:45.012Z,1015.28
2017-05-09T11:45:54.930Z,1015.28
2017-05-09T11:47:04.854Z,1015.34
2017-05-09T11:48:14.475Z,1015.27
2017-05-09T11:49:24.243Z,1015.19
2017-05-09T11:50:34.469Z,1015.19
2017-05-09T11:51:44.710Z,1015.16
2017-05-09T11:52:54.950Z,1015.1
2017-05-09T11:54:04.873Z,1015.1
2017-05-09T11:55:14.944Z,1015.08
2017-05-09T11:56:24.252Z,1015.1
2017-05-09T11:57:34.471Z,1015.1
2017-05-09T11:58:44.094Z,1015.11
2017-05-09T11:59:54.325Z,1015.14
2017-05-09T12:01:04.393Z,1015.17
2017-05-09T12:02:14.623Z,1015.07
2017-05-09T12:03:24.856Z,1015.04
2017-05-09T12:04:34.780Z,1015.02
2017-05-09T12:05:44.705Z,1015.02
2017-05-09T12:06:54.787Z,1015.02
2017-05-09T12:08:04.387Z,1015
2017-05-09T12:09:13.680Z,1014.92
2017-05-09T12:10:23.289Z,1014.94
2017-05-09T12:11:33.504Z,1014.9
2017-05-09T12:12:43.532Z,1014.94
2017-05-09T12:13:53.189Z,1014.92
2017-05-09T12:15:03.430Z,1014.87
2017-05-09T12:16:12.433Z,1014.87
2017-05-09T12:17:22.351Z,1014.86
2017-05-09T12:18:32.680Z,1014.9
2017-05-09T12:19:42.909Z,1014.86
2017-05-09T12:20:52.814Z,1014.87
2017-05-09T12:22:02.729Z,1014.83
2017-05-09T12:23:12.640Z,1014.87
2017-05-09T12:24:22.650Z,1014.84
2017-05-09T12:25:32.876Z,1014.82
2017-05-09T12:26:42.784Z,1014.87
2017-05-09T12:27:52.396Z,1014.83
2017-05-09T12:29:02.636Z,1014.8
2017-05-09T12:30:12.990Z,1014.75
2017-05-09T12:31:22.305Z,1014.78
2017-05-09T12:32:31.923Z,1014.79
2017-05-09T12:33:42.145Z,1014.78
2017-05-09T12:34:51.770Z,1014.79
2017-05-09T12:36:02.094Z,1014.8
2017-05-09T12:37:11.404Z,1014.86
2017-05-09T12:38:20.708Z,1014.79
2017-05-09T12:39:30.937Z,1014.76
2017-05-09T12:40:40.862Z,1014.75
2017-05-09T12:41:51.239Z,1014.77
2017-05-09T12:43:01.159Z,1014.71
2017-05-09T12:44:10.460Z,1014.71
2017-05-09T12:45:20.375Z,1014.71
2017-05-09T12:46:30.288Z,1014.69
2017-05-09T12:47:40.350Z,1014.63
2017-05-09T12:48:50.565Z,1014.63
2017-05-09T12:50:00.196Z,1014.63
2017-05-09T12:51:10.120Z,1014.62
2017-05-09T12:52:20.048Z,1014.56
2017-05-09T12:53:30.420Z,1014.6
2017-05-09T12:54:40.647Z,1014.54
2017-05-09T12:55:50.563Z,1014.54
2017-05-09T12:57:00.472Z,1014.55
2017-05-09T12:58:10.704Z,1014.58
2017-05-09T12:59:20.454Z,1014.57
2017-05-09T13:00:30.357Z,1014.57
2017-05-09T13:01:39.960Z,1014.56
2017-05-09T13:02:49.883Z,1014.57
2017-05-09T13:03:59.486Z,1014.59
2017-05-09T13:05:09.899Z,1014.58
2017-05-09T13:06:19.516Z,1014.56
2017-05-09T13:07:29.451Z,1014.53
2017-05-09T13:08:39.085Z,1014.54
2017-05-09T13:09:49.012Z,1014.53
2017-05-09T13:10:59.082Z,1014.57
2017-05-09T13:12:09.003Z,1014.5
2017-05-09T13:13:18.610Z,1014.42
2017-05-09T13:14:28.848Z,1014.38
2017-05-09T13:15:38.764Z,1014.36
2017-05-09T13:16:49.132Z,1014.29
2017-05-09T13:17:59.385Z,1014.27
2017-05-09T13:19:09.639Z,1014.36
2017-05-09T13:20:19.252Z,1014.32
2017-05-09T13:21:29.476Z,1014.3
2017-05-09T13:22:39.859Z,1014.26
2017-05-09T13:23:50.078Z,1014.19
2017-05-09T13:25:00.015Z,1014.17
2017-05-09T13:26:09.944Z,1014.14
2017-05-09T13:27:19.865Z,1014.19
2017-05-09T13:28:29.943Z,1014.18
2017-05-09T13:29:39.865Z,1014.13
2017-05-09T13:30:49.790Z,1014.12
2017-05-09T13:31:59.697Z,1014.16
2017-05-09T13:33:09.302Z,1014.09
2017-05-09T13:34:19.381Z,1014.04
2017-05-09T13:35:29.309Z,1014.06
2017-05-09T13:36:39.538Z,1014.07
2017-05-09T13:37:49.163Z,1014.04
2017-05-09T13:38:59.412Z,1013.98
2017-05-09T13:40:09.787Z,1013.93
2017-05-09T13:41:19.391Z,1013.93
2017-05-09T13:42:29.622Z,1013.91
2017-05-09T13:43:39.581Z,1013.95
2017-05-09T13:44:49.555Z,1014.01
2017-05-09T13:45:59.968Z,1013.97
2017-05-09T13:47:09.582Z,1013.85
2017-05-09T13:48:19.520Z,1013.93
2017-05-09T13:49:29.144Z,1013.91
2017-05-09T13:50:39.278Z,1013.88
2017-05-09T13:51:49.356Z,1013.88
2017-05-09T13:52:59.286Z,1013.78
2017-05-09T13:54:09.206Z,1013.8
2017-05-09T13:55:19.455Z,1013.82
2017-05-09T13:56:29.088Z,1013.77
2017-05-09T13:57:39.151Z,1013.76
2017-05-09T13:58:49.400Z,1013.65
2017-05-09T13:59:59.640Z,1013.68
2017-05-09T14:01:09.268Z,1013.66
2017-05-09T14:02:18.882Z,1013.63
2017-05-09T14:03:28.950Z,1013.6
2017-05-09T14:04:38.262Z,1013.61
2017-05-09T14:05:47.262Z,1013.59
2017-05-09T14:06:57.189Z,1013.53
2017-05-09T14:08:07.118Z,1013.52
2017-05-09T14:09:16.593Z,1013.5